createdAt,value
2017-06-30T00:00:13.410Z,86.70
2017-06-30T00:02:41.686Z,86.00
2017-06-30T00:05:10.007Z,87.00
2017-06-30T00:07:39.794Z,87.40
2017-06-30T00:12:38.043Z,89.40
2017-06-30T00:15:06.340Z,89.70
2017-06-30T00:17:35.020Z,89.80
2017-06-30T00:20:03.675Z,90.20
2017-06-30T00:22:32.715Z,90.60
2017-06-30T00:25:00.995Z,90.80
2017-06-30T00:27:29.322Z,91.00
2017-06-30T00:29:57.603Z,91.20
2017-06-30T00:34:55.826Z,91.60
2017-06-30T00:37:24.107Z,91.70
2017-06-30T00:39:53.155Z,91.80
2017-06-30T00:44:53.486Z,91.80
2017-06-30T00:47:21.778Z,91.80
2017-06-30T00:49:50.115Z,91.70
2017-06-30T00:52:19.899Z,91.90
2017-06-30T00:54:48.363Z,91.90
2017-06-30T00:57:17.834Z,92.10
2017-06-30T00:59:46.118Z,92.10
2017-06-30T01:02:14.391Z,92.10
2017-06-30T01:04:42.998Z,92.10
2017-06-30T01:07:11.278Z,92.20
2017-06-30T01:09:40.699Z,92.10
2017-06-30T01:12:09.022Z,92.10
2017-06-30T01:17:07.570Z,91.90
2017-06-30T01:19:35.911Z,91.90
2017-06-30T01:22:04.981Z,91.90
2017-06-30T01:24:33.277Z,91.70
2017-06-30T01:29:31.118Z,91.30
2017-06-30T01:31:59.398Z,91.20
2017-06-30T01:34:28.638Z,91.20
2017-06-30T01:36:57.679Z,90.90
2017-06-30T01:39:26.351Z,91.00
2017-06-30T01:41:56.170Z,90.60
2017-06-30T01:46:54.347Z,90.30
2017-06-30T01:49:22.698Z,90.50
2017-06-30T01:51:50.975Z,90.40
2017-06-30T01:56:49.295Z,90.10
2017-06-30T02:01:47.834Z,89.40
2017-06-30T02:04:17.242Z,89.00
2017-06-30T02:06:46.282Z,88.80
2017-06-30T02:09:15.326Z,88.30
2017-06-30T02:11:43.939Z,88.30
2017-06-30T02:16:41.715Z,87.70
2017-06-30T02:19:11.543Z,87.90
2017-06-30T02:21:39.815Z,87.10
2017-06-30T02:24:08.090Z,86.20
2017-06-30T02:26:36.632Z,85.80
2017-06-30T02:29:04.918Z,82.90
2017-06-30T02:31:33.203Z,83.40
2017-06-30T02:34:03.022Z,82.80
2017-06-30T02:39:01.199Z,81.40
2017-06-30T02:41:30.787Z,80.80
2017-06-30T02:43:59.452Z,80.20
2017-06-30T02:46:28.123Z,80.70
2017-06-30T02:48:57.306Z,78.90
2017-06-30T02:51:27.083Z,78.70
2017-06-30T02:53:55.358Z,78.00
2017-06-30T02:58:53.194Z,78.70
2017-06-30T03:01:21.476Z,77.60
2017-06-30T03:03:50.586Z,78.90
2017-06-30T03:06:18.858Z,77.20
2017-06-30T03:08:47.904Z,76.80
2017-06-30T03:11:17.278Z,76.30
2017-06-30T03:13:47.058Z,77.30
2017-06-30T03:16:16.467Z,77.90
2017-06-30T03:18:45.550Z,77.50
2017-06-30T03:21:14.966Z,76.40
2017-06-30T03:23:43.703Z,76.00
2017-06-30T03:26:13.190Z,75.60
2017-06-30T03:28:41.858Z,75.90
2017-06-30T03:31:10.906Z,76.30
2017-06-30T03:36:09.115Z,75.70
2017-06-30T03:41:07.715Z,76.00
2017-06-30T03:43:36.391Z,76.50
2017-06-30T03:46:05.444Z,75.70
2017-06-30T03:51:34.122Z,75.50
2017-06-30T03:54:02.806Z,76.10
2017-06-30T03:56:31.086Z,76.90
2017-06-30T03:59:00.946Z,77.10
2017-06-30T04:03:59.471Z,76.60
2017-06-30T04:06:28.572Z,76.40
2017-06-30T04:11:26.743Z,77.30
2017-06-30T04:16:24.850Z,76.80
2017-06-30T04:18:53.126Z,77.50
2017-06-30T04:21:21.453Z,77.70
2017-06-30T04:26:19.230Z,77.70
2017-06-30T04:28:47.551Z,78.10
2017-06-30T04:31:15.835Z,77.40
2017-06-30T04:33:44.099Z,77.50
2017-06-30T04:36:12.523Z,78.60
2017-06-30T04:38:42.303Z,77.70
2017-06-30T04:41:10.575Z,77.50
2017-06-30T04:43:39.286Z,78.20
2017-06-30T04:46:08.332Z,77.90
2017-06-30T04:51:06.598Z,78.00
2017-06-30T04:53:35.644Z,80.00
2017-06-30T04:56:04.703Z,79.00
2017-06-30T04:58:33.043Z,79.10
2017-06-30T05:01:01.314Z,79.10
2017-06-30T05:03:29.598Z,78.50
2017-06-30T05:05:57.914Z,79.10
2017-06-30T05:08:27.327Z,79.00
2017-06-30T05:10:55.603Z,78.30
2017-06-30T05:13:24.463Z,78.40
2017-06-30T05:15:52.747Z,78.40
2017-06-30T05:18:22.171Z,78.80
2017-06-30T05:23:20.771Z,78.30
2017-06-30T05:25:49.046Z,79.30
2017-06-30T05:28:18.146Z,78.50
2017-06-30T05:30:46.422Z,79.40
2017-06-30T05:33:15.465Z,78.90
2017-06-30T05:35:44.571Z,79.90
2017-06-30T05:38:12.834Z,79.10
2017-06-30T05:40:42.614Z,78.00
2017-06-30T05:43:10.931Z,77.90
2017-06-30T05:45:40.718Z,78.00
2017-06-30T05:48:09.768Z,78.00
2017-06-30T05:50:38.370Z,78.20
2017-06-30T05:53:07.418Z,78.50
2017-06-30T05:55:35.706Z,78.20
2017-06-30T05:58:04.055Z,78.20
2017-06-30T06:00:32.355Z,78.70
2017-06-30T06:03:00.631Z,79.50
2017-06-30T06:05:30.801Z,77.00
2017-06-30T06:07:59.842Z,76.60
2017-06-30T06:10:28.879Z,77.00
2017-06-30T06:12:58.618Z,76.60
2017-06-30T06:15:27.295Z,75.80
2017-06-30T06:17:55.570Z,75.70
2017-06-30T06:20:24.659Z,76.40
2017-06-30T06:22:52.934Z,75.80
2017-06-30T06:25:21.999Z,76.60
2017-06-30T06:27:50.746Z,75.90
2017-06-30T06:30:19.022Z,74.20
2017-06-30T06:32:47.700Z,76.20
2017-06-30T06:35:17.548Z,75.50
2017-06-30T06:37:45.822Z,75.00
2017-06-30T06:40:14.098Z,76.60
2017-06-30T06:42:42.447Z,75.90
2017-06-30T06:45:12.219Z,76.30
2017-06-30T06:47:40.494Z,75.40
2017-06-30T06:50:08.839Z,74.40
2017-06-30T06:52:37.890Z,74.70
2017-06-30T06:55:06.178Z,74.40
2017-06-30T06:57:34.551Z,75.40
2017-06-30T07:00:03.373Z,75.80
2017-06-30T07:02:32.790Z,74.30
2017-06-30T07:05:02.644Z,74.30
2017-06-30T07:07:30.927Z,73.70
2017-06-30T07:09:59.198Z,74.60
2017-06-30T07:12:28.673Z,73.70
2017-06-30T07:14:56.950Z,73.60
2017-06-30T07:17:25.995Z,72.50
2017-06-30T07:19:54.407Z,71.10
2017-06-30T07:22:23.818Z,71.50
2017-06-30T07:24:52.106Z,71.90
2017-06-30T07:27:20.430Z,72.70
2017-06-30T07:29:48.702Z,72.30
2017-06-30T07:32:17.742Z,72.20
2017-06-30T07:34:46.079Z,70.70
2017-06-30T07:37:15.119Z,70.20
2017-06-30T07:39:44.527Z,71.00
2017-06-30T07:42:14.374Z,69.90
2017-06-30T07:44:44.156Z,70.70
2017-06-30T07:47:12.427Z,70.80
2017-06-30T07:49:42.270Z,70.90
2017-06-30T07:52:10.542Z,70.70
2017-06-30T07:54:38.818Z,69.70
2017-06-30T07:57:07.440Z,69.30
2017-06-30T07:59:35.731Z,68.40
2017-06-30T08:02:04.023Z,68.00
2017-06-30T08:07:01.899Z,67.60
2017-06-30T08:12:00.830Z,65.60
2017-06-30T08:14:29.106Z,66.80
2017-06-30T08:16:57.779Z,66.10
2017-06-30T08:19:26.119Z,66.00
2017-06-30T08:21:55.159Z,63.70
2017-06-30T08:24:23.831Z,64.60
2017-06-30T08:26:52.524Z,64.70
2017-06-30T08:29:20.811Z,63.60
2017-06-30T08:31:50.598Z,62.90
2017-06-30T08:34:18.947Z,64.70
2017-06-30T08:36:47.223Z,63.50
2017-06-30T08:39:15.499Z,64.40
2017-06-30T08:44:13.322Z,62.30
2017-06-30T08:46:41.594Z,62.30
2017-06-30T08:49:09.918Z,61.80
2017-06-30T08:54:08.111Z,58.50
2017-06-30T08:56:36.458Z,59.50
2017-06-30T08:59:04.752Z,59.60
2017-06-30T09:01:33.807Z,60.50
2017-06-30T09:04:02.499Z,61.60
2017-06-30T09:06:31.939Z,60.50
2017-06-30T09:11:30.206Z,61.40
2017-06-30T09:16:28.390Z,60.20
2017-06-30T09:18:56.709Z,61.20
2017-06-30T09:21:24.983Z,61.60
2017-06-30T09:26:23.238Z,60.20
2017-06-30T09:28:51.935Z,60.90
2017-06-30T09:31:20.214Z,61.10
2017-06-30T09:33:49.343Z,60.90
2017-06-30T09:36:18.011Z,59.90
2017-06-30T09:38:46.293Z,60.30
2017-06-30T09:41:14.610Z,61.30
2017-06-30T09:43:43.651Z,61.20
2017-06-30T09:46:11.923Z,60.60
2017-06-30T09:51:09.750Z,60.60
2017-06-30T09:53:38.047Z,61.80
2017-06-30T09:56:06.705Z,60.90
2017-06-30T09:58:35.006Z,61.90
2017-06-30T10:01:03.296Z,60.00
2017-06-30T10:03:32.864Z,59.20
2017-06-30T10:06:01.148Z,59.00
2017-06-30T10:10:59.743Z,58.10
2017-06-30T10:13:29.151Z,61.40
2017-06-30T10:15:57.826Z,59.50
2017-06-30T10:18:26.168Z,59.70
2017-06-30T10:20:54.442Z,58.90
2017-06-30T10:23:23.490Z,58.20
2017-06-30T10:28:27.834Z,58.30
2017-06-30T10:30:56.459Z,55.60
2017-06-30T10:33:25.499Z,54.10
2017-06-30T10:35:53.770Z,54.40
2017-06-30T10:38:22.482Z,55.20
2017-06-30T10:40:50.779Z,55.10
2017-06-30T10:43:19.062Z,54.90
2017-06-30T10:45:47.378Z,54.50
2017-06-30T10:48:16.786Z,54.50
2017-06-30T10:50:45.455Z,54.40
2017-06-30T10:53:14.078Z,54.90
2017-06-30T10:58:12.991Z,56.20
2017-06-30T11:00:43.476Z,57.40
2017-06-30T11:03:13.259Z,54.80
2017-06-30T11:05:41.530Z,56.40
2017-06-30T11:10:43.982Z,54.80
2017-06-30T11:13:12.395Z,55.80
2017-06-30T11:15:41.803Z,57.20
2017-06-30T11:18:10.076Z,57.00
2017-06-30T11:20:38.422Z,54.20
2017-06-30T11:23:06.718Z,54.70
2017-06-30T11:25:35.015Z,54.80
2017-06-30T11:28:04.900Z,54.10
2017-06-30T11:33:03.097Z,53.20
2017-06-30T11:35:31.469Z,53.60
2017-06-30T11:37:59.723Z,54.80
2017-06-30T11:40:27.998Z,55.10
2017-06-30T11:42:57.084Z,55.00
2017-06-30T11:45:26.122Z,55.40
2017-06-30T11:47:55.165Z,54.80
2017-06-30T11:50:23.506Z,55.80
2017-06-30T11:52:51.788Z,56.40
2017-06-30T11:55:20.073Z,54.60
2017-06-30T11:57:49.542Z,54.90
2017-06-30T12:00:18.578Z,55.80
2017-06-30T12:02:46.851Z,56.40
2017-06-30T12:05:16.304Z,56.30
2017-06-30T12:07:44.579Z,56.70
2017-06-30T12:10:12.850Z,56.00
2017-06-30T12:12:41.166Z,56.40
2017-06-30T12:15:10.947Z,56.80
2017-06-30T12:17:39.219Z,56.60
2017-06-30T12:20:08.711Z,57.20
2017-06-30T12:22:37.762Z,59.10
2017-06-30T12:25:06.828Z,57.70
2017-06-30T12:27:36.373Z,56.20
2017-06-30T12:30:05.183Z,55.90
2017-06-30T12:32:33.466Z,55.20
2017-06-30T12:35:01.805Z,55.20
2017-06-30T12:37:31.578Z,55.50
2017-06-30T12:40:01.412Z,55.80
2017-06-30T12:42:29.723Z,55.70
2017-06-30T12:44:58.762Z,55.90
2017-06-30T12:47:27.835Z,54.60
2017-06-30T12:49:56.142Z,56.20
2017-06-30T12:52:24.810Z,54.80
2017-06-30T12:54:54.627Z,56.40
2017-06-30T12:57:22.954Z,55.70
2017-06-30T12:59:51.233Z,55.10
2017-06-30T13:04:49.447Z,53.80
2017-06-30T13:07:17.724Z,54.30
2017-06-30T13:09:46.823Z,53.30
2017-06-30T13:14:45.007Z,52.80
2017-06-30T13:17:13.346Z,53.00
2017-06-30T13:22:11.514Z,51.60
2017-06-30T13:24:40.598Z,53.00
2017-06-30T13:27:09.637Z,53.10
2017-06-30T13:29:37.921Z,51.60
2017-06-30T13:32:06.603Z,53.20
2017-06-30T13:34:36.397Z,53.30
2017-06-30T13:39:35.035Z,51.50
2017-06-30T13:42:03.325Z,53.20
2017-06-30T13:47:01.559Z,53.00
2017-06-30T13:49:30.603Z,53.50
2017-06-30T13:51:58.918Z,52.30
2017-06-30T13:54:27.193Z,53.60
2017-06-30T13:56:56.973Z,53.00
2017-06-30T13:59:25.292Z,52.80
2017-06-30T14:01:53.574Z,53.10
2017-06-30T14:04:21.859Z,52.50
2017-06-30T14:06:50.196Z,51.50
2017-06-30T14:09:18.473Z,51.10
2017-06-30T14:11:46.742Z,51.90
2017-06-30T14:14:16.198Z,52.50
2017-06-30T14:16:44.466Z,50.70
2017-06-30T14:19:12.746Z,50.70
2017-06-30T14:24:10.990Z,50.30
2017-06-30T14:26:39.261Z,50.00
2017-06-30T14:29:07.654Z,50.60
2017-06-30T14:31:36.333Z,50.90
2017-06-30T14:39:04.944Z,51.70
2017-06-30T14:41:33.631Z,51.80
2017-06-30T14:44:01.978Z,51.70
2017-06-30T14:46:30.247Z,51.50
2017-06-30T14:48:59.282Z,50.90
2017-06-30T14:51:28.636Z,51.80
2017-06-30T14:53:57.675Z,50.80
2017-06-30T14:56:26.347Z,50.80
2017-06-30T14:58:54.675Z,50.60
2017-06-30T15:01:22.960Z,49.50
2017-06-30T15:03:52.749Z,50.00
2017-06-30T15:06:21.415Z,50.70
2017-06-30T15:08:50.078Z,50.00
2017-06-30T15:11:18.360Z,48.40
2017-06-30T15:13:46.691Z,49.30
2017-06-30T15:16:16.466Z,49.50
2017-06-30T15:18:44.739Z,48.60
2017-06-30T15:21:13.430Z,49.90
2017-06-30T15:23:42.842Z,48.60
2017-06-30T15:26:11.134Z,48.90
2017-06-30T15:28:39.766Z,48.80
2017-06-30T15:31:08.050Z,48.50
2017-06-30T15:33:36.740Z,49.70
2017-06-30T15:36:05.830Z,49.70
2017-06-30T15:38:34.125Z,49.90
2017-06-30T15:46:02.399Z,47.90
2017-06-30T15:48:31.830Z,48.20
2017-06-30T15:51:00.935Z,48.60
2017-06-30T15:53:29.213Z,47.80
2017-06-30T15:55:58.251Z,48.50
2017-06-30T15:58:26.573Z,48.20
2017-06-30T16:00:54.846Z,48.90
2017-06-30T16:10:56.918Z,47.00
2017-06-30T16:13:25.194Z,47.20
2017-06-30T16:15:53.470Z,48.40
2017-06-30T16:18:21.795Z,47.60
2017-06-30T16:20:50.067Z,48.10
2017-06-30T16:23:18.343Z,46.90
2017-06-30T16:25:46.671Z,47.00
2017-06-30T16:28:16.451Z,47.10
2017-06-30T16:30:44.731Z,47.30
2017-06-30T16:33:13.576Z,48.00
2017-06-30T16:35:42.280Z,48.80
2017-06-30T16:40:40.831Z,48.40
2017-06-30T16:45:38.660Z,48.40
2017-06-30T16:48:07.007Z,48.40
2017-06-30T16:50:35.306Z,47.60
2017-06-30T16:53:03.605Z,48.60
2017-06-30T16:55:33.090Z,48.80
2017-06-30T16:58:01.363Z,47.80
2017-06-30T17:00:29.647Z,48.30
2017-06-30T17:02:58.338Z,48.30
2017-06-30T17:07:56.132Z,49.50
2017-06-30T17:10:24.452Z,49.30
2017-06-30T17:15:23.011Z,48.60
2017-06-30T17:17:52.104Z,49.40
2017-06-30T17:22:50.270Z,49.10
2017-06-30T17:25:18.667Z,49.50
2017-06-30T17:27:48.090Z,49.40
2017-06-30T17:30:17.130Z,49.70
2017-06-30T17:32:45.459Z,49.00
2017-06-30T17:35:14.871Z,49.50
2017-06-30T17:37:43.148Z,49.30
2017-06-30T17:40:11.570Z,49.20
2017-06-30T17:42:39.850Z,49.50
2017-06-30T17:45:08.143Z,49.20
2017-06-30T17:50:05.993Z,49.10
2017-06-30T17:52:34.283Z,49.20
2017-06-30T17:55:02.659Z,49.10
2017-06-30T18:00:02.031Z,48.90
2017-06-30T18:02:32.187Z,49.70
2017-06-30T18:05:00.463Z,49.00
2017-06-30T18:15:02.687Z,49.50
2017-06-30T18:20:00.870Z,53.40
2017-06-30T18:22:30.471Z,54.90
2017-06-30T18:24:59.522Z,56.40
2017-06-30T18:27:27.795Z,57.00
2017-06-30T18:29:56.143Z,57.70
2017-06-30T18:45:24.154Z,59.60
2017-06-30T18:47:52.430Z,59.50
2017-06-30T18:50:20.759Z,59.60
2017-06-30T18:55:18.530Z,60.00
2017-06-30T18:57:47.142Z,60.50
2017-06-30T19:00:16.555Z,60.60
2017-06-30T19:02:44.827Z,61.10
2017-06-30T19:05:13.459Z,61.70
2017-06-30T19:10:11.634Z,61.30
2017-06-30T19:15:09.930Z,61.50
2017-06-30T19:17:38.214Z,61.90
2017-06-30T19:20:06.582Z,62.40
2017-06-30T19:22:35.636Z,63.00
2017-06-30T19:25:03.966Z,64.40
2017-06-30T19:27:33.799Z,64.00
2017-06-30T19:32:31.988Z,64.00
2017-06-30T19:35:00.986Z,64.00
2017-06-30T19:37:29.262Z,64.30
2017-06-30T19:39:57.534Z,64.70
2017-06-30T19:42:26.618Z,66.00
2017-06-30T19:44:54.894Z,66.60
2017-06-30T19:47:23.171Z,66.20
2017-06-30T19:49:51.515Z,66.30
2017-06-30T19:52:19.794Z,66.20
2017-06-30T19:54:48.835Z,66.80
2017-06-30T19:57:17.154Z,67.10
2017-06-30T19:59:46.194Z,66.10
2017-06-30T20:02:14.467Z,67.20
2017-06-30T20:07:13.691Z,70.90
2017-06-30T20:09:41.971Z,72.60
2017-06-30T20:14:40.075Z,76.60
2017-06-30T20:17:08.387Z,77.60
2017-06-30T20:19:38.254Z,78.50
2017-06-30T20:22:06.575Z,79.30
2017-06-30T20:24:34.871Z,80.10
2017-06-30T20:27:03.221Z,80.60
2017-06-30T20:29:31.499Z,82.40
2017-06-30T20:32:01.296Z,83.20
2017-06-30T20:34:29.899Z,83.70
2017-06-30T20:36:59.691Z,83.80
2017-06-30T20:39:29.121Z,84.00
2017-06-30T20:41:58.218Z,84.90
2017-06-30T20:44:26.494Z,85.40
2017-06-30T20:49:25.762Z,87.50
2017-06-30T20:51:54.061Z,88.40
2017-06-30T20:54:23.859Z,89.00
2017-06-30T20:56:52.618Z,89.60
2017-06-30T20:59:20.905Z,90.00
2017-06-30T21:01:49.954Z,90.10
2017-06-30T21:04:18.655Z,90.10
2017-06-30T21:06:47.334Z,90.30
2017-06-30T21:09:16.762Z,90.50
2017-06-30T21:11:45.387Z,90.90
2017-06-30T21:14:15.183Z,91.40
2017-06-30T21:16:43.474Z,91.40
2017-06-30T21:19:11.851Z,91.60
2017-06-30T21:21:40.138Z,91.60
2017-06-30T21:24:10.572Z,91.80
2017-06-30T21:26:39.586Z,91.70
2017-06-30T21:29:08.687Z,91.70
2017-06-30T21:31:37.363Z,91.70
2017-06-30T21:34:05.707Z,91.80
2017-06-30T21:36:33.990Z,92.20
2017-06-30T21:39:03.787Z,92.20
2017-06-30T21:41:32.695Z,92.40
2017-06-30T21:44:01.755Z,92.20
2017-06-30T21:46:30.495Z,92.30
2017-06-30T21:48:58.986Z,92.10
2017-06-30T21:51:27.270Z,92.20
2017-06-30T21:53:57.067Z,92.40
2017-06-30T21:58:55.516Z,92.40
2017-06-30T22:01:23.804Z,92.70
2017-06-30T22:06:22.166Z,92.70
2017-06-30T22:08:51.214Z,92.70
2017-06-30T22:11:19.571Z,92.70
2017-06-30T22:13:47.896Z,92.40
2017-06-30T22:16:16.207Z,92.50
2017-06-30T22:18:45.699Z,92.30
2017-06-30T22:21:13.990Z,92.60
2017-06-30T22:23:43.797Z,92.60
2017-06-30T22:26:12.143Z,92.50
2017-06-30T22:28:40.471Z,92.80
2017-06-30T22:31:08.766Z,92.70
2017-06-30T22:33:39.016Z,92.60
2017-06-30T22:36:07.316Z,92.60
2017-06-30T22:38:35.598Z,92.80
2017-06-30T22:41:05.437Z,92.70
2017-06-30T22:43:33.714Z,92.50
2017-06-30T22:46:02.771Z,92.50
2017-06-30T22:48:31.374Z,92.80
2017-06-30T22:51:00.082Z,92.70
2017-06-30T22:53:29.510Z,92.80
2017-06-30T22:55:57.858Z,92.60
2017-06-30T22:58:27.278Z,92.60
2017-06-30T23:00:55.570Z,92.80
2017-06-30T23:03:24.202Z,92.80
2017-06-30T23:05:53.627Z,92.60
2017-06-30T23:08:21.913Z,92.60
2017-06-30T23:10:50.287Z,92.60
2017-06-30T23:13:19.351Z,92.90
2017-06-30T23:15:48.410Z,92.90
2017-06-30T23:20:46.258Z,92.90
2017-06-30T23:23:15.335Z,92.80
2017-06-30T23:25:43.962Z,92.60
2017-06-30T23:28:12.663Z,92.60
2017-06-30T23:30:40.953Z,93.00
2017-06-30T23:33:09.314Z,92.80
2017-06-30T23:35:39.108Z,92.90
2017-06-30T23:43:07.267Z,92.70
2017-06-30T23:45:35.550Z,92.70
2017-06-30T23:48:04.208Z,92.70
2017-06-30T23:50:32.488Z,92.70
2017-06-30T23:53:00.770Z,92.40
2017-06-30T23:55:29.110Z,92.70
2017-06-30T23:57:58.522Z,92.70
